Aérodrome :
LOGIN :

S'inscrire | Disclaimer

   EN    FR    IT 

 










Légende :    VFR   VFR Marginal   IFR   IFR Intensif   IFR Très Intensif
Visi : 
Plafond : 
>= 8 km
>= 3000ft
5 à 8 km
1000 à 3000 ft
1500m à 5 km
500 à 1000 ft
800 à 1500m
200 à 500 ft
< 800m
< 200 ft
Symboles :   Orages  Brouillard  Fortes neiges  Fortes précipitations  Vent > 20 kt
SIGMETs :   Divers  Orages  Givrage  Turbulence  Onde Orograph.  Cendres Volcan.






- Altitude de l'aérodrome : 13 ft
- Code IATA : SNR


LFRZ - St-Nazaire

DERNIER METAR :
  • 032000Z AUTO 30005KT 270V360 CAVOK 16/12 Q1003 TEMPO 4500 -SHRA BKN030TCU

METARs EXPIRÉS :
  • 031930Z AUTO 35008KT CAVOK 17/11 Q1003 TEMPO 4500 -SHRA BKN030TCU
  • 031900Z AUTO 34009KT 310V020 CAVOK 18/11 Q1003 TEMPO 4500 -SHRA BKN030CB
  • 031830Z AUTO 36012KT CAVOK 18/11 Q1003 TEMPO 4500 -SHRA BKN030CB
  • 031800Z AUTO 35011KT 310V010 CAVOK 20/12 Q1003 TEMPO 4500 -SHRA BKN030CB
  • 031730Z AUTO 33015KT 280V360 9999 ///TCU 21/12 Q1002 TEMPO 4500 -SHRA BKN030CB

TAF TAF LFRZ
Valide du 03 à 18h jusqu'au 04 à 18h UTC


031700Z 0318/0418 28015KT 9999 SCT045
BECMG 0318/0320 34010KT
TEMPO 0318/0412 4500 -SHRA BKN030TCU
PROB30
TEMPO 0318/0321 TSRA BKN030CB
TEMPO 0408/0413 35015G25KT



MET'MAP, la Météo Aéronautique d'un coup d'oeil ! - Copyright ORBIFLY Décembre 2007 - Disclaimer

ORBIFLY MET'MAP TEAM :

Programmation & Développement : Alexandra Zaïnal
Sur une idée originale de : Baudouin d'Aumeries
Assistance à la programmation : Marc-Olivier Méhu
Soutien technique & logistique : Manuel Goepfert

Contact : metmap@orbifly.com




SOURCES & CREDITS :

   NOAA